Time;durP1;ratioP1;P1;durP2;ratioP2;P2;SDS_P1;SDS_P2;PMS_P1;PMS_P2;Temp;Humidity;BMP_temperature;BMP_pressure;BME280_temperature;BME280_humidity;BME280_pressure;Samples;Min_cycle;Max_cycle;Signal;HPM_P1;HPM_P2
2023/04/23 00:01:26;;;;;;;11.38;4.93;;;19.50;77.50;;;;;;5028699;28;20021;-81
2023/04/23 00:03:56;;;;;;;13.20;5.22;;;19.50;77.50;;;;;;5015776;28;20027;-80
2023/04/23 00:06:22;;;;;;;10.93;4.38;;;19.50;77.50;;;;;;5027204;28;20097;-81
2023/04/23 00:08:49;;;;;;;12.20;4.72;;;19.50;77.50;;;;;;5015150;28;20048;-81
2023/04/23 00:11:15;;;;;;;20.38;4.72;;;19.50;77.50;;;;;;5027350;28;20021;-80
2023/04/23 00:13:41;;;;;;;13.38;4.40;;;19.50;77.50;;;;;;5012718;28;20021;-80
2023/04/23 00:16:07;;;;;;;9.60;4.85;;;19.40;77.40;;;;;;5027648;28;20471;-80
2023/04/23 00:18:32;;;;;;;17.25;5.25;;;19.50;77.40;;;;;;5014717;28;20112;-81
2023/04/23 00:20:58;;;;;;;19.63;4.30;;;19.50;77.50;;;;;;5022598;28;20025;-81
2023/04/23 00:23:24;;;;;;;14.50;4.70;;;19.50;77.40;;;;;;5015710;28;20030;-80
2023/04/23 00:25:49;;;;;;;11.88;4.85;;;19.50;77.40;;;;;;5022571;28;20025;-81
2023/04/23 00:28:15;;;;;;;13.40;4.90;;;19.50;77.40;;;;;;5012844;28;20022;-80
2023/04/23 00:30:41;;;;;;;9.60;4.25;;;19.50;77.40;;;;;;5023865;28;20466;-80
2023/04/23 00:33:06;;;;;;;13.25;4.40;;;19.50;77.40;;;;;;5017651;28;20057;-80
2023/04/23 00:35:32;;;;;;;10.90;4.20;;;19.40;77.30;;;;;;5024243;28;20123;-81
2023/04/23 00:37:57;;;;;;;11.23;4.13;;;19.40;77.30;;;;;;5014867;28;20015;-78
2023/04/23 00:40:23;;;;;;;11.75;4.80;;;19.50;77.30;;;;;;5033394;28;20044;-81
2023/04/23 00:42:52;;;;;;;12.10;4.70;;;19.50;77.30;;;;;;5020452;28;20024;-79
2023/04/23 00:45:18;;;;;;;10.57;4.68;;;19.50;77.30;;;;;;5022088;28;20029;-79
2023/04/23 00:47:45;;;;;;;14.02;4.75;;;19.50;77.30;;;;;;5021824;28;20034;-79
2023/04/23 00:50:12;;;;;;;13.40;4.53;;;19.50;77.30;;;;;;5018405;28;20033;-80
2023/04/23 00:52:39;;;;;;;6.95;3.75;;;19.50;77.40;;;;;;5026838;28;20017;-79
2023/04/23 00:55:05;;;;;;;7.32;3.75;;;19.40;77.30;;;;;;5018523;28;20047;-80
2023/04/23 00:57:32;;;;;;;10.15;4.65;;;19.40;77.40;;;;;;5015442;28;20029;-79
2023/04/23 00:59:58;;;;;;;10.63;4.30;;;19.40;77.40;;;;;;5025005;28;20129;-79
2023/04/23 01:02:26;;;;;;;12.05;5.05;;;19.40;77.40;;;;;;5017405;28;20116;-79
2023/04/23 01:04:53;;;;;;;7.03;3.80;;;19.40;77.40;;;;;;5023230;28;20028;-80
2023/04/23 01:07:20;;;;;;;9.13;4.35;;;19.40;77.30;;;;;;5016603;28;20026;-79
2023/04/23 01:09:46;;;;;;;14.30;4.07;;;19.50;77.40;;;;;;5024108;28;20025;-78
2023/04/23 01:12:14;;;;;;;9.95;4.60;;;19.40;77.40;;;;;;5019686;28;20105;-79
2023/04/23 01:14:41;;;;;;;7.07;3.83;;;19.50;78.20;;;;;;5025877;28;20016;-79
2023/04/23 01:17:08;;;;;;;13.18;4.82;;;19.40;77.30;;;;;;5011847;28;20084;-80
2023/04/23 01:19:34;;;;;;;9.43;3.55;;;19.50;77.40;;;;;;5020991;28;20616;-79
2023/04/23 01:22:00;;;;;;;12.88;4.40;;;19.40;77.30;;;;;;5016311;28;20475;-80
2023/04/23 01:24:29;;;;;;;7.97;3.70;;;19.40;77.30;;;;;;5022120;28;20482;-78
2023/04/23 01:26:57;;;;;;;9.55;3.92;;;19.40;77.20;;;;;;5013527;28;20044;-78
2023/04/23 01:29:23;;;;;;;10.13;3.47;;;19.40;78.00;;;;;;5038249;28;20029;-80
2023/04/23 01:31:49;;;;;;;5.07;3.58;;;19.40;77.20;;;;;;5020032;28;20043;-79
2023/04/23 01:34:16;;;;;;;10.02;3.75;;;19.40;77.30;;;;;;5022979;28;20021;-80
2023/04/23 01:36:42;;;;;;;8.10;3.63;;;19.40;77.80;;;;;;5019399;28;20021;-80
2023/04/23 01:39:08;;;;;;;7.88;4.20;;;19.40;77.30;;;;;;5024152;28;20036;-79
2023/04/23 01:41:35;;;;;;;8.07;3.63;;;19.40;77.30;;;;;;5014142;28;20026;-80
2023/04/23 01:44:01;;;;;;;6.25;3.42;;;19.40;77.30;;;;;;5014054;28;20038;-80
2023/04/23 01:46:27;;;;;;;7.03;3.30;;;19.40;78.10;;;;;;5017582;28;20029;-79
2023/04/23 01:48:53;;;;;;;10.55;4.00;;;19.40;77.40;;;;;;5016607;28;20396;-79
2023/04/23 01:51:18;;;;;;;7.47;3.53;;;19.40;77.30;;;;;;5014063;28;20027;-79
2023/04/23 01:53:44;;;;;;;7.80;3.78;;;19.40;77.40;;;;;;5010654;28;20036;-81
2023/04/23 01:56:10;;;;;;;7.28;3.45;;;19.40;77.40;;;;;;5019010;28;20018;-80
2023/04/23 01:58:36;;;;;;;7.75;3.67;;;19.40;77.40;;;;;;5009801;28;20010;-80
2023/04/23 02:01:02;;;;;;;7.13;4.07;;;19.40;77.40;;;;;;5005549;28;20030;-80
2023/04/23 02:03:29;;;;;;;7.30;3.63;;;19.40;77.30;;;;;;5008171;28;20092;-80
2023/04/23 02:05:55;;;;;;;9.82;3.65;;;19.40;77.30;;;;;;5007007;28;20092;-80
2023/04/23 02:08:21;;;;;;;7.90;3.58;;;19.40;77.20;;;;;;5011724;28;20030;-80
2023/04/23 02:10:46;;;;;;;6.40;3.28;;;19.40;77.30;;;;;;5015088;28;20033;-79
2023/04/23 02:13:12;;;;;;;9.52;3.75;;;19.40;77.30;;;;;;5009547;28;20096;-81
2023/04/23 02:15:39;;;;;;;6.28;3.45;;;19.40;77.30;;;;;;5017874;28;20029;-79
2023/04/23 02:18:05;;;;;;;11.38;3.17;;;19.40;77.30;;;;;;5017191;28;20016;-80
2023/04/23 02:20:31;;;;;;;5.53;3.38;;;19.40;77.30;;;;;;5016405;28;20030;-79
2023/04/23 02:22:57;;;;;;;6.78;3.33;;;19.40;77.30;;;;;;5018148;28;20042;-78
2023/04/23 02:25:22;;;;;;;7.80;3.38;;;19.40;77.30;;;;;;5016850;28;20074;-80
2023/04/23 02:27:48;;;;;;;8.05;3.90;;;19.40;77.20;;;;;;5020511;28;20021;-80
2023/04/23 02:30:14;;;;;;;12.43;3.38;;;19.40;77.30;;;;;;5019540;28;20022;-79
2023/04/23 02:32:40;;;;;;;6.90;3.40;;;19.40;77.30;;;;;;5030327;28;20076;-79
2023/04/23 02:35:08;;;;;;;9.68;3.17;;;19.40;77.30;;;;;;5028660;28;20014;-79
2023/04/23 02:37:34;;;;;;;9.50;3.15;;;19.40;77.30;;;;;;5020754;28;20086;-79
2023/04/23 02:40:00;;;;;;;6.18;2.95;;;19.40;77.30;;;;;;5016254;28;20022;-78
2023/04/23 02:42:26;;;;;;;6.50;3.22;;;19.40;77.40;;;;;;5013762;28;20026;-80
2023/04/23 02:44:52;;;;;;;9.82;3.92;;;19.40;77.40;;;;;;5018170;28;20533;-78
2023/04/23 02:47:17;;;;;;;6.00;3.63;;;19.40;77.40;;;;;;5014298;28;20072;-79
2023/04/23 02:49:43;;;;;;;8.50;3.55;;;19.40;77.40;;;;;;5013918;28;20498;-79
2023/04/23 02:52:09;;;;;;;8.65;2.90;;;19.40;77.40;;;;;;5010586;28;20057;-80
2023/04/23 02:54:35;;;;;;;6.40;2.95;;;19.40;77.40;;;;;;5013357;28;20010;-79
2023/04/23 02:57:02;;;;;;;6.78;2.95;;;19.40;77.40;;;;;;5005075;28;20027;-81
2023/04/23 02:59:27;;;;;;;10.73;3.35;;;19.40;77.40;;;;;;5012950;28;20046;-78
2023/04/23 03:01:53;;;;;;;7.25;3.63;;;19.40;77.40;;;;;;5009135;28;20030;-80
2023/04/23 03:04:19;;;;;;;9.20;3.53;;;19.40;77.40;;;;;;5016769;28;20022;-79
2023/04/23 03:06:44;;;;;;;5.43;3.25;;;19.40;77.40;;;;;;5012854;28;20030;-80
2023/04/23 03:09:11;;;;;;;9.00;3.03;;;19.40;77.40;;;;;;5014567;28;20029;-81
2023/04/23 03:11:37;;;;;;;6.93;3.05;;;19.40;77.40;;;;;;5001999;28;20027;-79
2023/04/23 03:14:02;;;;;;;4.85;2.92;;;19.40;77.40;;;;;;5015606;28;20478;-79
2023/04/23 03:16:29;;;;;;;5.18;2.50;;;19.40;77.40;;;;;;5017528;28;20026;-80
2023/04/23 03:18:55;;;;;;;5.53;2.95;;;19.40;77.40;;;;;;5017427;28;20101;-79
2023/04/23 03:21:20;;;;;;;6.43;2.95;;;19.40;77.40;;;;;;5018415;28;20073;-80
2023/04/23 03:23:46;;;;;;;5.80;2.90;;;19.40;77.40;;;;;;5020203;28;20026;-80
2023/04/23 03:26:11;;;;;;;5.40;2.75;;;19.40;77.40;;;;;;5018045;28;20077;-81
2023/04/23 03:28:37;;;;;;;5.07;2.78;;;19.40;77.40;;;;;;5017200;28;20025;-80
2023/04/23 03:31:02;;;;;;;4.53;2.97;;;19.40;77.40;;;;;;5016590;28;20546;-80
2023/04/23 03:33:28;;;;;;;8.57;3.40;;;19.40;77.50;;;;;;5018488;28;20025;-80
2023/04/23 03:35:54;;;;;;;7.43;3.33;;;19.40;77.50;;;;;;5011766;28;20501;-79
2023/04/23 03:38:19;;;;;;;6.20;3.10;;;19.40;77.50;;;;;;5014099;28;20099;-81
2023/04/23 03:40:45;;;;;;;3.65;2.72;;;19.30;77.40;;;;;;5019068;28;20410;-79
2023/04/23 03:43:11;;;;;;;5.63;3.00;;;19.40;77.50;;;;;;5020555;28;20041;-80
2023/04/23 03:45:36;;;;;;;5.57;3.10;;;19.30;77.40;;;;;;5015229;28;20479;-79
2023/04/23 03:48:02;;;;;;;7.38;3.20;;;19.40;77.50;;;;;;5018631;28;20141;-80
2023/04/23 03:50:28;;;;;;;4.53;2.55;;;19.30;77.40;;;;;;5012210;28;20032;-80
2023/04/23 03:52:54;;;;;;;5.38;3.00;;;19.30;77.40;;;;;;5018485;28;20125;-80
2023/04/23 03:55:20;;;;;;;3.42;2.60;;;19.30;77.40;;;;;;5014369;28;20030;-80
2023/04/23 03:57:45;;;;;;;5.43;2.88;;;19.30;77.40;;;;;;5018989;28;20026;-80
2023/04/23 04:00:11;;;;;;;5.60;2.53;;;19.30;77.40;;;;;;5017256;28;20014;-81
2023/04/23 04:02:38;;;;;;;4.75;2.65;;;19.30;77.40;;;;;;5023005;28;20054;-80
2023/04/23 04:05:04;;;;;;;5.70;2.67;;;19.30;77.40;;;;;;5017192;28;20484;-80
2023/04/23 04:07:30;;;;;;;6.50;2.78;;;19.30;77.40;;;;;;5016838;28;20419;-81
2023/04/23 04:09:56;;;;;;;3.72;2.78;;;19.30;77.40;;;;;;5017904;28;20053;-80
2023/04/23 04:12:21;;;;;;;5.13;3.05;;;19.30;77.40;;;;;;5023231;28;20017;-80
2023/04/23 04:14:47;;;;;;;7.53;3.00;;;19.40;77.50;;;;;;5014798;28;20026;-79
2023/04/23 04:17:14;;;;;;;7.07;2.88;;;19.30;77.40;;;;;;5019854;28;20029;-79
2023/04/23 04:19:41;;;;;;;5.30;2.78;;;19.30;77.50;;;;;;5015672;28;20105;-80
2023/04/23 04:22:07;;;;;;;6.97;2.92;;;19.30;77.40;;;;;;5022108;28;20030;-80
2023/04/23 04:24:34;;;;;;;4.25;2.75;;;19.30;77.40;;;;;;5024136;28;20116;-80
2023/04/23 04:27:00;;;;;;;4.32;2.20;;;19.30;77.40;;;;;;5030110;28;20021;-78
2023/04/23 04:29:27;;;;;;;4.35;2.45;;;19.30;77.40;;;;;;5025057;28;20030;-79
2023/04/23 04:31:56;;;;;;;3.78;2.38;;;19.30;77.40;;;;;;5017759;28;20043;-78
2023/04/23 04:34:22;;;;;;;4.75;2.85;;;19.30;77.50;;;;;;5015392;28;20026;-79
2023/04/23 04:36:47;;;;;;;4.93;2.67;;;19.30;77.40;;;;;;5020448;28;20390;-79
2023/04/23 04:39:13;;;;;;;3.60;2.10;;;19.30;77.40;;;;;;5014340;28;20024;-77
2023/04/23 04:41:40;;;;;;;3.58;2.55;;;19.30;77.40;;;;;;5013767;28;20037;-79
2023/04/23 04:44:07;;;;;;;3.97;2.20;;;19.30;77.50;;;;;;5010737;28;20102;-79
2023/04/23 04:46:33;;;;;;;4.63;2.47;;;19.30;77.50;;;;;;5013738;28;20525;-80
2023/04/23 04:48:59;;;;;;;4.25;2.00;;;19.30;77.50;;;;;;5009739;28;20152;-79
2023/04/23 04:51:25;;;;;;;2.75;2.13;;;19.40;77.70;;;;;;5014087;28;20100;-80
2023/04/23 04:53:51;;;;;;;3.40;2.17;;;19.40;77.60;;;;;;5015874;28;20125;-79
2023/04/23 04:56:17;;;;;;;4.97;2.50;;;19.40;77.60;;;;;;5013800;28;20514;-79
2023/04/23 04:58:43;;;;;;;3.60;2.38;;;19.40;77.70;;;;;;5018117;28;20018;-78
2023/04/23 05:01:09;;;;;;;8.18;2.47;;;19.40;77.70;;;;;;5017822;28;20844;-79
2023/04/23 05:03:35;;;;;;;3.58;2.40;;;19.40;77.90;;;;;;5021485;28;20584;-78
2023/04/23 05:06:01;;;;;;;4.93;2.40;;;19.40;77.90;;;;;;5018053;28;20029;-78
2023/04/23 05:08:27;;;;;;;3.92;2.40;;;19.40;78.00;;;;;;5022481;28;20091;-77
2023/04/23 05:10:53;;;;;;;5.18;3.13;;;19.40;78.00;;;;;;5016481;28;20049;-80
2023/04/23 05:13:18;;;;;;;4.15;2.25;;;19.40;78.10;;;;;;5015631;28;20080;-79
2023/04/23 05:15:47;;;;;;;4.20;2.65;;;19.50;78.20;;;;;;5021396;28;20026;-79
2023/04/23 05:18:12;;;;;;;5.32;2.42;;;19.40;78.90;;;;;;5016885;28;20026;-78
2023/04/23 05:20:38;;;;;;;3.42;2.53;;;19.50;78.20;;;;;;5021773;28;20041;-81
2023/04/23 05:23:04;;;;;;;5.10;2.40;;;19.50;78.20;;;;;;5018209;28;20042;-78
2023/04/23 05:25:30;;;;;;;7.13;2.53;;;19.50;78.20;;;;;;5020429;28;20100;-79
2023/04/23 05:27:57;;;;;;;4.07;2.90;;;19.50;78.20;;;;;;5006371;28;20109;-79
2023/04/23 05:30:22;;;;;;;3.03;2.17;;;19.50;78.20;;;;;;5011229;28;20618;-80
2023/04/23 05:32:48;;;;;;;7.78;2.22;;;19.50;78.20;;;;;;5013229;28;20075;-78
2023/04/23 05:35:14;;;;;;;2.95;2.13;;;19.50;78.20;;;;;;5011734;28;20089;-80
2023/04/23 05:37:40;;;;;;;2.58;2.33;;;19.50;79.00;;;;;;5010422;28;20022;-79
2023/04/23 05:40:06;;;;;;;4.85;2.30;;;19.50;78.20;;;;;;5006778;28;20156;-80
2023/04/23 05:42:33;;;;;;;6.05;2.60;;;19.50;78.20;;;;;;5008319;28;20125;-78
2023/04/23 05:44:59;;;;;;;3.83;2.33;;;19.60;78.30;;;;;;5011439;28;20049;-79
2023/04/23 05:47:25;;;;;;;4.55;2.38;;;19.50;78.20;;;;;;5015564;28;20050;-79
2023/04/23 05:49:51;;;;;;;4.72;2.33;;;19.50;78.30;;;;;;5013537;28;20040;-80
2023/04/23 05:52:17;;;;;;;2.95;2.20;;;19.60;78.30;;;;;;5020726;28;20038;-79
2023/04/23 05:54:42;;;;;;;4.63;2.47;;;19.60;78.30;;;;;;5016572;28;20026;-80
2023/04/23 05:57:08;;;;;;;5.57;2.58;;;19.60;78.30;;;;;;5014139;28;20720;-80
2023/04/23 05:59:34;;;;;;;7.15;2.92;;;19.60;78.30;;;;;;5017704;28;20022;-79
2023/04/23 06:01:59;;;;;;;4.97;2.55;;;19.60;78.30;;;;;;5018373;28;20033;-79
2023/04/23 06:04:25;;;;;;;3.78;2.35;;;19.60;78.20;;;;;;5019234;28;20025;-80
2023/04/23 06:06:51;;;;;;;2.28;2.08;;;19.60;78.20;;;;;;5017223;28;20092;-80
2023/04/23 06:09:16;;;;;;;3.90;2.20;;;19.60;78.20;;;;;;5008907;28;20499;-79
2023/04/23 06:11:42;;;;;;;8.05;2.67;;;19.60;78.10;;;;;;5017912;28;20021;-79
2023/04/23 06:14:08;;;;;;;6.57;2.20;;;19.60;78.20;;;;;;5016280;28;20040;-79
2023/04/23 06:16:33;;;;;;;3.60;2.15;;;19.70;78.20;;;;;;5023442;28;20034;-80
2023/04/23 06:18:59;;;;;;;6.07;2.47;;;19.60;78.10;;;;;;5025332;28;20375;-78
2023/04/23 06:21:26;;;;;;;4.40;2.20;;;19.70;78.20;;;;;;5016904;28;20440;-80
2023/04/23 06:23:51;;;;;;;2.45;2.08;;;19.60;78.10;;;;;;5019232;28;20494;-79
2023/04/23 06:26:17;;;;;;;5.68;2.13;;;19.70;78.10;;;;;;5015629;28;20041;-79
2023/04/23 06:28:44;;;;;;;6.40;2.10;;;19.70;78.20;;;;;;5014683;28;20072;-79
2023/04/23 06:31:10;;;;;;;4.47;2.10;;;19.70;78.10;;;;;;5010254;28;20045;-80
2023/04/23 06:33:36;;;;;;;3.63;2.00;;;19.70;78.10;;;;;;5006302;28;20763;-79
2023/04/23 06:36:02;;;;;;;4.22;2.25;;;19.70;78.10;;;;;;5015427;28;20037;-79
2023/04/23 06:38:28;;;;;;;4.40;2.15;;;19.70;78.00;;;;;;5019714;28;20045;-78
2023/04/23 06:40:54;;;;;;;4.03;2.15;;;19.70;77.90;;;;;;5020712;28;20017;-78
2023/04/23 06:43:20;;;;;;;15.05;2.97;;;19.70;78.30;;;;;;5012885;28;20014;-79
2023/04/23 06:45:45;;;;;;;47.15;5.32;;;19.80;79.00;;;;;;5020562;28;20091;-79
2023/04/23 06:48:11;;;;;;;38.22;4.35;;;19.80;79.40;;;;;;5014277;28;20034;-79
2023/04/23 06:50:37;;;;;;;27.27;4.07;;;19.80;79.30;;;;;;5020006;28;20104;-79
2023/04/23 06:53:02;;;;;;;24.13;3.33;;;19.80;79.70;;;;;;5014774;28;20030;-80
2023/04/23 06:55:28;;;;;;;11.52;2.75;;;19.80;78.80;;;;;;5021304;28;20017;-79
2023/04/23 06:57:55;;;;;;;15.60;3.10;;;19.80;78.70;;;;;;5012860;28;20081;-79
2023/04/23 07:00:22;;;;;;;15.25;3.20;;;19.80;78.50;;;;;;5019468;28;20518;-79
2023/04/23 07:02:48;;;;;;;19.88;2.53;;;19.80;78.50;;;;;;5017969;28;20108;-79
2023/04/23 07:05:14;;;;;;;14.07;2.78;;;19.80;78.50;;;;;;5018247;28;20101;-79
2023/04/23 07:07:41;;;;;;;22.92;3.08;;;19.80;78.30;;;;;;5020410;28;20026;-81
2023/04/23 07:10:08;;;;;;;14.52;2.92;;;19.90;78.40;;;;;;5016823;28;20038;-81
2023/04/23 07:12:35;;;;;;;12.98;2.22;;;19.80;78.30;;;;;;5015046;28;20042;-79
2023/04/23 07:15:01;;;;;;;13.05;2.50;;;19.80;78.30;;;;;;5011488;28;20022;-79
2023/04/23 07:17:27;;;;;;;11.40;2.40;;;19.80;78.20;;;;;;5010927;28;20029;-79
2023/04/23 07:19:52;;;;;;;15.05;2.90;;;19.80;78.20;;;;;;5018414;28;20021;-79
2023/04/23 07:22:18;;;;;;;20.13;3.70;;;19.90;78.20;;;;;;5013266;28;20731;-80
2023/04/23 07:24:43;;;;;;;6.90;2.35;;;19.80;78.90;;;;;;5014521;28;20031;-79
2023/04/23 07:27:09;;;;;;;7.68;2.17;;;19.90;78.30;;;;;;5016677;28;20030;-79
2023/04/23 07:29:35;;;;;;;11.55;2.42;;;19.90;78.20;;;;;;5011061;28;20831;-80
2023/04/23 07:32:00;;;;;;;13.40;3.13;;;19.90;78.10;;;;;;5020507;28;20060;-79
2023/04/23 07:34:26;;;;;;;15.38;2.85;;;19.90;78.10;;;;;;5023887;28;20030;-79
2023/04/23 07:36:51;;;;;;;17.17;3.30;;;19.90;78.00;;;;;;5028285;28;20018;-80
2023/04/23 07:39:17;;;;;;;16.75;3.08;;;19.90;77.90;;;;;;5025775;28;20033;-79
2023/04/23 07:41:42;;;;;;;11.82;2.72;;;19.90;77.90;;;;;;5023304;28;20033;-80
2023/04/23 07:44:08;;;;;;;11.38;3.00;;;19.90;77.70;;;;;;5021561;28;20165;-79
2023/04/23 07:46:33;;;;;;;13.23;2.50;;;20.00;77.70;;;;;;5023976;28;20021;-80
2023/04/23 07:48:59;;;;;;;11.27;2.60;;;20.00;77.70;;;;;;5025094;28;20032;-80
2023/04/23 07:51:25;;;;;;;16.50;2.65;;;20.00;77.70;;;;;;5018390;28;20018;-81
2023/04/23 07:53:53;;;;;;;10.63;2.10;;;20.00;77.70;;;;;;5023674;28;20018;-79
2023/04/23 07:56:20;;;;;;;17.10;3.10;;;20.10;77.70;;;;;;5023420;28;20021;-81
2023/04/23 07:58:46;;;;;;;10.40;2.88;;;20.10;77.60;;;;;;5022804;28;20533;-79
2023/04/23 08:01:12;;;;;;;13.30;2.40;;;20.10;77.50;;;;;;5025350;28;20038;-79
2023/04/23 08:03:37;;;;;;;18.05;2.78;;;20.10;77.60;;;;;;5024138;28;20029;-78
2023/04/23 08:06:03;;;;;;;9.05;2.72;;;20.10;77.50;;;;;;5020733;28;20034;-82
2023/04/23 08:08:29;;;;;;;10.10;2.60;;;20.10;77.50;;;;;;5030731;28;20019;-81
2023/04/23 08:10:54;;;;;;;31.90;3.60;;;20.10;77.50;;;;;;5031190;28;20128;-81
2023/04/23 08:13:20;;;;;;;35.95;4.40;;;20.20;77.70;;;;;;5016160;28;20029;-80
2023/04/23 08:15:46;;;;;;;24.13;3.22;;;20.20;77.80;;;;;;5024337;28;20018;-81
2023/04/23 08:18:11;;;;;;;17.13;4.35;;;20.20;77.70;;;;;;5015552;28;20028;-80
2023/04/23 08:20:37;;;;;;;40.95;3.58;;;20.20;77.70;;;;;;5013033;28;20041;-83
2023/04/23 08:23:03;;;;;;;25.75;2.95;;;20.20;77.60;;;;;;5013382;28;20422;-82
2023/04/23 08:25:29;;;;;;;28.98;3.75;;;20.20;77.60;;;;;;5021471;28;20102;-80
2023/04/23 08:27:54;;;;;;;14.63;3.38;;;20.20;77.60;;;;;;5026831;28;20053;-80
2023/04/23 08:30:20;;;;;;;29.13;3.08;;;20.20;77.90;;;;;;5021317;28;20033;-80
2023/04/23 08:32:49;;;;;;;10.32;2.75;;;20.20;78.00;;;;;;5042907;28;20018;-80
2023/04/23 08:35:15;;;;;;;15.27;3.25;;;20.30;78.00;;;;;;5021687;28;20041;-81
2023/04/23 08:37:41;;;;;;;17.63;2.70;;;20.20;78.10;;;;;;5020983;28;20033;-85
2023/04/23 08:40:07;;;;;;;31.05;3.22;;;20.20;78.10;;;;;;5020656;28;20025;-81
2023/04/23 08:42:47;;;;;;;28.42;3.92;;;20.20;79.10;;;;;;5016283;28;20045;-90
2023/04/23 08:45:13;;;;;;;11.50;3.13;;;20.30;80.10;;;;;;5017531;28;20045;-89
2023/04/23 08:47:43;;;;;;;18.15;2.55;;;20.40;79.70;;;;;;5001701;28;20033;-85
2023/04/23 08:50:13;;;;;;;56.65;3.78;;;20.40;79.20;;;;;;5027205;28;20033;-83
2023/04/23 08:52:44;;;;;;;21.55;3.13;;;20.40;79.80;;;;;;5020898;28;20026;-81
2023/04/23 08:55:09;;;;;;;20.13;3.22;;;20.50;79.20;;;;;;5021323;28;20023;-79
2023/04/23 08:57:40;;;;;;;21.35;2.92;;;20.50;78.50;;;;;;5014317;28;20031;-80
2023/04/23 09:00:07;;;;;;;40.80;3.50;;;20.50;78.10;;;;;;5023345;28;20112;-81
2023/04/23 09:02:34;;;;;;;19.23;3.28;;;20.60;78.60;;;;;;5010935;28;20033;-77
2023/04/23 09:05:04;;;;;;;19.92;2.63;;;20.60;77.70;;;;;;5019591;28;20028;-78
2023/04/23 09:07:30;;;;;;;16.80;2.70;;;20.60;77.80;;;;;;5010120;28;20033;-79
2023/04/23 09:09:55;;;;;;;9.55;2.70;;;20.60;77.60;;;;;;5004570;28;20033;-77
2023/04/23 09:12:21;;;;;;;18.88;3.17;;;20.60;77.60;;;;;;5013784;28;20079;-77
2023/04/23 09:14:50;;;;;;;27.25;3.30;;;20.60;77.60;;;;;;5018348;28;20022;-76
2023/04/23 09:17:17;;;;;;;13.82;3.42;;;20.60;77.40;;;;;;5015560;28;20045;-76
2023/04/23 09:19:45;;;;;;;14.80;2.42;;;20.70;77.20;;;;;;5013219;28;20029;-77
2023/04/23 09:22:10;;;;;;;16.05;3.00;;;20.60;77.00;;;;;;5012599;28;20105;-78
2023/04/23 09:24:36;;;;;;;12.15;2.60;;;20.60;76.80;;;;;;5019740;28;20113;-79
2023/04/23 09:27:02;;;;;;;21.42;2.60;;;20.60;76.90;;;;;;5014249;28;20049;-79
2023/04/23 09:29:29;;;;;;;17.35;2.95;;;20.60;76.70;;;;;;5015360;28;20117;-80
2023/04/23 09:32:07;;;;;;;9.02;1.83;;;20.60;76.60;;;;;;5017359;28;20398;-82
2023/04/23 09:34:36;;;;;;;12.95;2.10;;;20.60;76.50;;;;;;5015897;28;20027;-76
2023/04/23 09:37:04;;;;;;;20.83;2.87;;;20.60;76.20;;;;;;5011741;28;20034;-78
2023/04/23 09:39:32;;;;;;;28.65;3.47;;;20.60;76.30;;;;;;5013802;28;20112;-78
2023/04/23 09:42:03;;;;;;;6.22;1.92;;;20.60;76.10;;;;;;5014642;28;20520;-79
2023/04/23 09:44:31;;;;;;;27.23;2.45;;;20.60;76.00;;;;;;5017904;28;20105;-83
2023/04/23 09:47:13;;;;;;;29.15;2.72;;;20.60;76.50;;;;;;5012634;28;20025;-85
2023/04/23 09:49:49;;;;;;;27.38;2.80;;;20.70;76.20;;;;;;5022840;28;20037;-80
2023/04/23 09:52:15;;;;;;;22.77;1.90;;;20.80;75.80;;;;;;5012121;28;20491;-84
2023/04/23 09:54:42;;;;;;;4.60;1.58;;;20.90;75.70;;;;;;5014182;28;20030;-83
2023/04/23 09:57:08;;;;;;;9.63;1.73;;;20.90;75.60;;;;;;5018216;28;20093;-84
2023/04/23 09:59:37;;;;;;;17.63;1.98;;;20.90;75.20;;;;;;5026547;28;20029;-82
2023/04/23 10:02:05;;;;;;;11.52;1.58;;;20.90;75.10;;;;;;5018689;28;20025;-81
2023/04/23 10:04:32;;;;;;;18.50;1.60;;;20.90;74.90;;;;;;5013906;28;20544;-82
2023/04/23 10:07:06;;;;;;;10.70;2.30;;;21.00;74.80;;;;;;5005117;28;20028;-81
2023/04/23 10:09:32;;;;;;;5.82;1.60;;;21.00;74.50;;;;;;5010539;28;20097;-82
2023/04/23 10:12:00;;;;;;;17.67;2.78;;;21.00;74.30;;;;;;5015675;28;20902;-80
2023/04/23 10:14:27;;;;;;;7.10;1.75;;;21.10;73.80;;;;;;5012654;28;20013;-78
2023/04/23 10:17:00;;;;;;;8.05;1.40;;;21.10;73.30;;;;;;5018841;28;20018;-82
2023/04/23 10:19:27;;;;;;;1.85;1.40;;;21.00;72.40;;;;;;5013229;28;20049;-78
2023/04/23 10:22:04;;;;;;;3.10;1.33;;;21.00;72.30;;;;;;5012456;28;20557;-77
2023/04/23 10:24:35;;;;;;;7.90;1.35;;;21.00;73.10;;;;;;5013913;28;20088;-79
2023/04/23 10:27:03;;;;;;;4.93;1.70;;;20.90;73.40;;;;;;5016192;28;20060;-79
2023/04/23 10:29:33;;;;;;;6.72;1.23;;;20.90;73.40;;;;;;5017008;28;20030;-78
2023/04/23 10:32:01;;;;;;;10.95;1.80;;;20.90;73.40;;;;;;5016490;28;20545;-85
2023/04/23 10:34:30;;;;;;;6.32;1.50;;;21.00;73.60;;;;;;5020059;28;20033;-82
2023/04/23 10:36:58;;;;;;;14.63;1.45;;;21.20;73.10;;;;;;5018566;28;20529;-83
2023/04/23 10:39:32;;;;;;;14.27;1.23;;;21.10;72.40;;;;;;5018403;28;20555;-84
2023/04/23 10:41:59;;;;;;;6.63;1.58;;;21.10;73.00;;;;;;5018079;28;20459;-80
2023/04/23 10:44:41;;;;;;;15.15;1.60;;;21.10;72.90;;;;;;5013894;28;20104;-82
2023/04/23 10:47:14;;;;;;;20.13;2.83;;;21.10;73.10;;;;;;5011823;28;20022;-84
2023/04/23 10:49:41;;;;;;;18.75;1.70;;;21.20;73.40;;;;;;5012517;28;20129;-85
2023/04/23 10:52:15;;;;;;;21.70;2.15;;;21.20;73.30;;;;;;5009136;28;20041;-85
2023/04/23 10:54:42;;;;;;;19.70;1.80;;;21.20;73.00;;;;;;5013149;28;20018;-84
2023/04/23 10:57:09;;;;;;;20.08;1.80;;;21.10;73.10;;;;;;5011800;28;20541;-85
2023/04/23 10:59:39;;;;;;;15.18;2.50;;;21.20;72.50;;;;;;5010431;28;20041;-84
2023/04/23 11:02:10;;;;;;;26.05;1.98;;;21.10;72.00;;;;;;5007220;28;20033;-84
2023/04/23 11:04:46;;;;;;;11.55;1.73;;;21.20;72.40;;;;;;5004516;28;20034;-84
2023/04/23 11:07:13;;;;;;;10.88;1.50;;;21.10;72.70;;;;;;5018880;28;20030;-83
2023/04/23 11:09:41;;;;;;;28.65;2.97;;;21.20;72.80;;;;;;5008743;28;20030;-82
2023/04/23 11:12:27;;;;;;;15.60;1.77;;;21.20;72.90;;;;;;5014613;28;20022;-78
2023/04/23 11:14:54;;;;;;;20.08;1.70;;;21.20;72.70;;;;;;5004908;28;20069;-82
2023/04/23 11:17:43;;;;;;;29.00;1.83;;;21.20;72.60;;;;;;5015010;28;20049;-82
2023/04/23 11:20:15;;;;;;;15.18;1.83;;;21.20;72.50;;;;;;5011114;28;20056;-84
2023/04/23 11:22:45;;;;;;;20.55;2.00;;;21.30;72.50;;;;;;5013133;28;20064;-79
2023/04/23 11:25:29;;;;;;;36.92;12.85;;;21.40;72.20;;;;;;5013007;28;20026;-82
2023/04/23 11:27:59;;;;;;;109.40;37.30;;;21.30;72.10;;;;;;5018560;28;20075;-84
2023/04/23 11:30:27;;;;;;;132.45;40.58;;;21.30;72.40;;;;;;5013502;28;20049;-81
2023/04/23 11:32:54;;;;;;;98.40;29.70;;;21.40;72.40;;;;;;5009306;28;20172;-83
2023/04/23 11:35:22;;;;;;;76.88;24.13;;;21.40;72.60;;;;;;5014391;28;20113;-79
2023/04/23 11:37:48;;;;;;;58.03;20.58;;;21.30;72.50;;;;;;5011383;28;20014;-77
2023/04/23 11:40:18;;;;;;;61.92;18.88;;;21.30;72.30;;;;;;5010138;28;20018;-77
2023/04/23 11:42:48;;;;;;;61.42;17.13;;;21.30;72.60;;;;;;5009681;28;20163;-78
2023/04/23 11:45:28;;;;;;;58.65;17.75;;;21.20;72.90;;;;;;5007663;28;20026;-76
2023/04/23 11:47:55;;;;;;;58.08;15.80;;;21.20;73.00;;;;;;5019366;28;20025;-81
2023/04/23 11:50:35;;;;;;;45.47;15.40;;;21.20;73.00;;;;;;5021915;28;20057;-82
2023/04/23 11:53:10;;;;;;;39.30;13.85;;;21.20;73.10;;;;;;5009743;28;20024;-81
2023/04/23 11:55:36;;;;;;;34.13;12.68;;;21.20;73.30;;;;;;5007605;28;20270;-82
2023/04/23 11:58:02;;;;;;;45.05;12.75;;;21.20;73.40;;;;;;5009412;28;20029;-75
2023/04/23 12:00:28;;;;;;;27.67;11.23;;;21.10;73.30;;;;;;5002770;28;20030;-75
2023/04/23 12:02:54;;;;;;;31.33;11.25;;;21.10;73.30;;;;;;5006022;28;20018;-75
2023/04/23 12:05:27;;;;;;;35.53;9.80;;;21.10;73.20;;;;;;5007215;28;20494;-75
2023/04/23 12:07:53;;;;;;;29.60;9.07;;;21.00;73.10;;;;;;5011521;28;20029;-76
2023/04/23 12:10:20;;;;;;;27.75;10.07;;;21.00;72.90;;;;;;5007133;28;20029;-76
2023/04/23 12:12:51;;;;;;;26.00;8.43;;;21.00;73.00;;;;;;5016247;28;20550;-77
2023/04/23 12:15:18;;;;;;;23.73;7.53;;;21.00;72.90;;;;;;5012593;28;20022;-76
2023/04/23 12:18:10;;;;;;;32.88;5.68;;;21.00;72.70;;;;;;5016783;28;20439;-76
2023/04/23 12:20:36;;;;;;;16.60;4.88;;;21.00;71.60;;;;;;5015709;28;20033;-77
2023/04/23 12:23:05;;;;;;;15.60;5.18;;;21.00;71.40;;;;;;5017862;28;20042;-83
2023/04/23 12:25:32;;;;;;;13.00;4.22;;;21.00;71.30;;;;;;5016190;28;20040;-82
2023/04/23 12:27:59;;;;;;;13.80;3.58;;;21.00;71.20;;;;;;5015887;28;20414;-82
2023/04/23 12:30:28;;;;;;;10.88;3.22;;;21.00;71.20;;;;;;5011271;28;20048;-82
2023/04/23 12:33:05;;;;;;;10.75;2.70;;;20.90;71.10;;;;;;5015636;28;20404;-77
2023/04/23 12:35:41;;;;;;;7.88;2.03;;;20.90;69.90;;;;;;5014707;28;20021;-77
2023/04/23 12:38:07;;;;;;;17.08;2.60;;;20.90;69.00;;;;;;5011841;28;20025;-76
2023/04/23 12:40:33;;;;;;;9.13;2.88;;;20.90;69.30;;;;;;5011242;28;20036;-76